Time;durP1;ratioP1;P1;durP2;ratioP2;P2;SDS_P1;SDS_P2;PMS_P1;PMS_P2;Temp;Humidity;BMP_temperature;BMP_pressure;BME280_temperature;BME280_humidity;BME280_pressure;Samples;Min_cycle;Max_cycle;Signal;HPM_P1;HPM_P2
2024/03/01 05:46:21;;;;;;;;;;;;;;;0.66;90.02;100930.47;96811;1311;22489;-50
2024/03/01 05:48:48;;;;;;;;;;;;;;;0.73;89.78;100936.00;107056;1303;22545;-51
2024/03/01 05:51:15;;;;;;;;;;;;;;;0.79;90.01;100937.98;107167;1300;22488;-51
2024/03/01 05:53:42;;;;;;;;;;;;;;;0.87;90.32;100933.22;107209;1311;22529;-52
2024/03/01 05:56:17;;;;;;;;;;;;;;;0.98;90.38;100918.86;107219;1299;23247;-53
2024/03/01 05:58:45;;;;;;;;;;;;;;;1.08;90.06;100908.16;107078;1312;22571;-51
2024/03/01 06:01:12;;;;;;;;;;;;;;;1.16;89.91;100906.64;107072;1312;23228;-53
2024/03/01 06:03:45;;;;;;;;;;;;;;;1.24;90.17;100913.38;107071;1306;22518;-51
2024/03/01 06:06:25;;;;;;;;;;;;;;;1.32;90.11;100911.53;106967;1309;22610;-52
2024/03/01 06:09:11;;;;;;;;;;;;;;;1.41;90.15;100910.90;106969;1306;23514;-51
2024/03/01 06:11:56;;;;;;;;;;;;;;;1.50;89.81;100914.58;106906;1304;24163;-53
2024/03/01 06:17:53;;;;;;;;;;;;;;;1.73;89.42;100919.91;106969;1303;22573;-56
2024/03/01 06:20:28;;;;;;;;;;;;;;;1.82;89.25;100925.32;106839;1306;22539;-53
2024/03/01 06:23:10;;;;;;;;;;;;;;;1.94;88.61;100917.42;106753;1304;22542;-51
2024/03/01 06:38:26;;;;;;;;;;;;;;;2.50;86.96;100951.20;107111;1312;22539;-56
2024/03/01 06:50:37;;;;;;;;;;;;;;;2.85;86.57;100955.77;107034;1307;22502;-57
2024/03/01 06:54:50;;;;;;;;;;;;;;;2.99;86.38;100960.00;106948;1303;22618;-57
2024/03/01 06:58:25;;;;;;;;;;;;;;;3.16;85.60;100957.59;107102;1304;22483;-57
2024/03/01 07:01:39;;;;;;;;;;;;;;;3.32;85.22;100952.70;106984;1304;22515;-57
2024/03/01 07:05:29;;;;;;;;;;;;;;;3.52;84.86;100956.92;106919;1304;22509;-54
2024/03/01 07:09:36;;;;;;;;;;;;;;;3.79;83.96;100960.90;107044;1305;22490;-53
2024/03/01 07:13:17;;;;;;;;;;;;;;;4.01;83.18;100963.11;106985;1312;23268;-54
2024/03/01 07:16:08;;;;;;;;;;;;;;;4.18;82.56;100958.05;106997;1304;22501;-57
2024/03/01 07:19:51;;;;;;;;;;;;;;;4.44;81.39;100948.27;107320;1294;23206;-54
2024/03/01 07:22:43;;;;;;;;;;;;;;;4.66;81.29;100951.09;106797;1307;23026;-57
2024/03/01 07:25:11;;;;;;;;;;;;;;;4.81;81.45;100955.25;106769;1303;23521;-53
2024/03/01 07:27:49;;;;;;;;;;;;;;;4.88;80.87;100958.59;106895;1304;22488;-53
2024/03/01 07:30:44;;;;;;;;;;;;;;;4.87;80.82;100958.71;106933;1305;23372;-53
2024/03/01 07:33:43;;;;;;;;;;;;;;;4.86;81.11;100955.20;107031;1305;22501;-53
2024/03/01 07:39:54;;;;;;;;;;;;;;;4.85;81.08;100963.67;107129;1310;23187;-52
2024/03/01 07:43:12;;;;;;;;;;;;;;;4.85;81.36;100966.58;107160;1305;22498;-55
2024/03/01 07:45:56;;;;;;;;;;;;;;;4.89;81.37;100963.80;107031;1304;22590;-53
2024/03/01 07:48:24;;;;;;;;;;;;;;;4.90;81.07;100963.48;106976;1310;22480;-51
2024/03/01 07:51:00;;;;;;;;;;;;;;;4.94;81.20;100958.08;106763;1307;23033;-54
2024/03/01 07:53:47;;;;;;;;;;;;;;;5.01;81.59;100954.52;106827;1306;22589;-57
2024/03/01 07:56:18;;;;;;;;;;;;;;;5.12;81.64;100957.27;106965;1307;22562;-53
2024/03/01 07:59:17;;;;;;;;;;;;;;;5.22;81.67;100965.39;107031;1310;23521;-56
2024/03/01 08:02:38;;;;;;;;;;;;;;;5.36;82.02;100961.89;106684;1305;22526;-52
2024/03/01 08:05:22;;;;;;;;;;;;;;;5.56;82.48;100959.02;106869;1305;23096;-54
2024/03/01 08:07:53;;;;;;;;;;;;;;;5.71;82.19;100954.48;106955;1306;23658;-54
2024/03/01 08:10:22;;;;;;;;;;;;;;;5.79;82.21;100954.38;106716;1309;22551;-53
2024/03/01 08:12:54;;;;;;;;;;;;;;;5.89;82.61;100953.13;106666;1304;22479;-57
2024/03/01 08:15:40;;;;;;;;;;;;;;;6.05;82.11;100947.73;106930;1307;23309;-57
2024/03/01 08:33:12;;;;;;;;;;;;;;;7.44;79.10;100919.17;106850;1304;23177;-58
2024/03/01 08:36:40;;;;;;;;;;;;;;;7.71;78.25;100919.95;106440;1316;22574;-57
2024/03/01 08:40:03;;;;;;;;;;;;;;;7.95;78.01;100911.42;106652;1310;22506;-58
2024/03/01 08:42:56;;;;;;;;;;;;;;;8.13;77.29;100900.31;106619;1309;22529;-58
2024/03/01 08:45:34;;;;;;;;;;;;;;;8.21;76.66;100909.52;106756;1311;22544;-57
2024/03/01 08:48:18;;;;;;;;;;;;;;;8.33;76.47;100920.70;106822;1310;22804;-56
2024/03/01 08:51:18;;;;;;;;;;;;;;;8.47;76.28;100923.77;107045;1290;23106;-58
2024/03/01 08:54:14;;;;;;;;;;;;;;;8.59;75.53;100917.04;107107;1305;22851;-54
2024/03/01 08:58:03;;;;;;;;;;;;;;;8.70;73.32;100909.59;107138;1304;22519;-59
2024/03/01 09:01:06;;;;;;;;;;;;;;;8.72;72.15;100909.80;106987;1306;22463;-57
2024/03/01 09:03:45;;;;;;;;;;;;;;;8.74;71.15;100910.17;107046;1304;22732;-54
2024/03/01 09:06:33;;;;;;;;;;;;;;;8.78;70.62;100906.77;107068;1302;22583;-63
2024/03/01 09:13:49;;;;;;;;;;;;;;;8.95;69.13;100907.92;106776;1309;23265;-55
2024/03/01 09:21:30;;;;;;;;;;;;;;;9.07;66.15;100898.88;106590;1309;22486;-56
2024/03/01 09:24:43;;;;;;;;;;;;;;;9.11;66.06;100897.55;106820;1309;22510;-59
2024/03/01 09:27:45;;;;;;;;;;;;;;;9.15;64.91;100901.96;106738;1314;22496;-54
2024/03/01 09:33:59;;;;;;;;;;;;;;;9.24;63.74;100889.73;106662;1306;23872;-54
2024/03/01 09:40:33;;;;;;;;;;;;;;;9.39;61.98;100887.87;106671;1309;23799;-54
2024/03/01 09:43:15;;;;;;;;;;;;;;;9.45;60.24;100893.70;106813;1306;22486;-58
2024/03/01 09:46:15;;;;;;;;;;;;;;;9.53;59.62;100895.22;106810;1306;22503;-58
2024/03/01 09:49:19;;;;;;;;;;;;;;;9.65;58.71;100894.31;106719;1306;22572;-57
2024/03/01 09:52:10;;;;;;;;;;;;;;;9.67;57.99;100889.12;106889;1307;23306;-52
2024/03/01 09:54:48;;;;;;;;;;;;;;;9.68;57.94;100882.85;106839;1307;22593;-58
2024/03/01 09:58:15;;;;;;;;;;;;;;;9.73;57.51;100879.10;106748;1308;22503;-60
2024/03/01 10:06:20;;;;;;;;;;;;;;;9.85;54.59;100883.60;106698;1308;22493;-53
2024/03/01 10:09:31;;;;;;;;;;;;;;;9.90;53.98;100879.64;106632;1307;23327;-54
2024/03/01 10:12:29;;;;;;;;;;;;;;;9.94;53.89;100878.84;106744;1302;22458;-55
2024/03/01 10:15:52;;;;;;;;;;;;;;;10.01;53.67;100875.77;106744;1306;22927;-59
2024/03/01 10:18:43;;;;;;;;;;;;;;;10.07;53.31;100872.19;106803;1306;22842;-56
2024/03/01 10:21:26;;;;;;;;;;;;;;;10.11;53.04;100873.45;106753;1309;23210;-54
2024/03/01 10:24:19;;;;;;;;;;;;;;;10.08;52.49;100878.65;106787;1309;23249;-54
2024/03/01 10:26:58;;;;;;;;;;;;;;;10.05;53.00;100878.79;106663;1310;22870;-54
2024/03/01 10:29:41;;;;;;;;;;;;;;;10.00;53.54;100876.81;106541;1307;23150;-54
2024/03/01 10:32:30;;;;;;;;;;;;;;;9.98;53.03;100875.23;106676;1312;22494;-55
2024/03/01 10:35:01;;;;;;;;;;;;;;;10.01;52.96;100877.16;106695;1309;22479;-55
2024/03/01 10:37:47;;;;;;;;;;;;;;;10.01;52.31;100868.63;106659;1306;22578;-57
2024/03/01 10:40:17;;;;;;;;;;;;;;;10.07;52.29;100863.12;106743;1309;22583;-56
2024/03/01 10:42:50;;;;;;;;;;;;;;;10.18;52.29;100858.88;106743;1309;23256;-53
2024/03/01 10:45:23;;;;;;;;;;;;;;;10.26;52.04;100859.88;106793;1296;22492;-58
2024/03/01 10:47:51;;;;;;;;;;;;;;;10.29;51.63;100858.86;106823;1307;23232;-54
2024/03/01 10:50:39;;;;;;;;;;;;;;;10.30;51.01;100855.20;106899;1308;22584;-57
2024/03/01 10:54:21;;;;;;;;;;;;;;;10.39;50.14;100849.02;107142;1292;22951;-54
2024/03/01 10:56:52;;;;;;;;;;;;;;;10.46;50.10;100849.42;107139;1308;23290;-54
2024/03/01 10:59:36;;;;;;;;;;;;;;;10.56;50.04;100850.05;107019;1311;23266;-61
2024/03/01 11:02:20;;;;;;;;;;;;;;;10.68;49.03;100843.69;106970;1306;23172;-57
2024/03/01 11:05:10;;;;;;;;;;;;;;;10.78;48.26;100846.21;107051;1304;22509;-57
2024/03/01 11:07:53;;;;;;;;;;;;;;;10.86;48.34;100838.42;107216;1303;23364;-57
2024/03/01 11:15:08;;;;;;;;;;;;;;;10.77;47.78;100837.30;106954;1307;22962;-56
2024/03/01 11:17:41;;;;;;;;;;;;;;;10.85;48.01;100833.70;106901;1304;22723;-53
2024/03/01 11:20:15;;;;;;;;;;;;;;;10.90;47.13;100828.85;106882;1304;22707;-55
2024/03/01 11:22:55;;;;;;;;;;;;;;;10.91;46.85;100833.59;106919;1304;23193;-57
2024/03/01 11:25:27;;;;;;;;;;;;;;;10.94;46.51;100832.19;106956;1307;23575;-57
2024/03/01 11:28:04;;;;;;;;;;;;;;;10.94;46.06;100829.41;106910;1307;22518;-54
2024/03/01 11:30:32;;;;;;;;;;;;;;;10.98;45.16;100828.39;106948;1306;23032;-55
2024/03/01 11:33:01;;;;;;;;;;;;;;;10.94;44.58;100824.70;107088;1307;23753;-55
2024/03/01 11:35:33;;;;;;;;;;;;;;;10.87;44.72;100817.48;106916;1306;22676;-54
2024/03/01 11:38:24;;;;;;;;;;;;;;;10.84;44.84;100816.41;106905;1306;22538;-53
2024/03/01 11:41:11;;;;;;;;;;;;;;;10.84;45.02;100810.83;106873;1293;22662;-57
2024/03/01 11:43:53;;;;;;;;;;;;;;;10.83;45.35;100813.09;106976;1305;22516;-55
2024/03/01 11:46:28;;;;;;;;;;;;;;;10.78;45.17;100807.48;107154;1303;22879;-54
2024/03/01 11:50:01;;;;;;;;;;;;;;;10.77;45.05;100799.27;106976;1293;22514;-56
2024/03/01 11:52:35;;;;;;;;;;;;;;;10.80;45.00;100797.38;107065;1304;22476;-57
2024/03/01 11:55:17;;;;;;;;;;;;;;;10.81;44.40;100798.95;107103;1303;22555;-57
2024/03/01 11:59:09;;;;;;;;;;;;;;;10.92;44.73;100802.52;107013;1306;22599;-58
2024/03/01 12:01:53;;;;;;;;;;;;;;;11.04;44.51;100802.59;106940;1303;22535;-58
2024/03/01 12:05:11;;;;;;;;;;;;;;;11.11;44.46;100800.17;106775;1306;22489;-56
2024/03/01 12:07:48;;;;;;;;;;;;;;;11.15;43.96;100794.63;106951;1304;22556;-57
2024/03/01 12:10:46;;;;;;;;;;;;;;;11.23;43.76;100792.58;106915;1306;22503;-57
2024/03/01 12:13:25;;;;;;;;;;;;;;;11.28;43.38;100792.08;106878;1310;22712;-58
2024/03/01 12:16:19;;;;;;;;;;;;;;;11.23;42.98;100798.67;106771;1312;22478;-63
2024/03/01 12:18:52;;;;;;;;;;;;;;;11.22;43.09;100799.89;106441;1309;22553;-61
2024/03/01 12:22:16;;;;;;;;;;;;;;;11.16;43.53;100801.27;106495;1310;23199;-58
2024/03/01 12:25:07;;;;;;;;;;;;;;;11.07;43.71;100798.42;106551;1309;22520;-59
2024/03/01 12:28:13;;;;;;;;;;;;;;;11.02;43.28;100799.96;106589;1309;22483;-58
2024/03/01 12:31:09;;;;;;;;;;;;;;;10.95;43.01;100798.69;106632;1312;22558;-57
2024/03/01 12:39:03;;;;;;;;;;;;;;;10.90;43.25;100797.09;106599;1309;23619;-61
2024/03/01 12:41:51;;;;;;;;;;;;;;;10.82;43.50;100792.67;106589;1312;22950;-59
2024/03/01 12:44:36;;;;;;;;;;;;;;;10.78;43.52;100787.58;106587;1309;22491;-54
2024/03/01 12:47:19;;;;;;;;;;;;;;;10.77;43.59;100786.87;106540;1307;22508;-54
2024/03/01 12:50:05;;;;;;;;;;;;;;;10.77;43.92;100782.52;106639;1310;22522;-52
2024/03/01 12:52:54;;;;;;;;;;;;;;;10.71;43.85;100776.89;106571;1304;22492;-64
2024/03/01 12:55:38;;;;;;;;;;;;;;;10.60;44.36;100772.81;106977;1307;22567;-56
2024/03/01 12:58:48;;;;;;;;;;;;;;;10.51;44.56;100782.15;107198;1312;22459;-55
2024/03/01 13:01:28;;;;;;;;;;;;;;;10.37;44.76;100786.57;106856;1307;22499;-62
2024/03/01 13:04:07;;;;;;;;;;;;;;;10.27;44.85;100784.04;106817;1297;22482;-56
2024/03/01 13:06:37;;;;;;;;;;;;;;;10.20;45.03;100782.38;106796;1312;22496;-57
2024/03/01 13:09:14;;;;;;;;;;;;;;;10.14;45.56;100777.96;106776;1309;22488;-63
2024/03/01 13:11:45;;;;;;;;;;;;;;;10.05;46.16;100787.63;106815;1307;23070;-56
2024/03/01 13:14:23;;;;;;;;;;;;;;;9.99;46.56;100788.09;106851;1312;22618;-55
2024/03/01 13:16:52;;;;;;;;;;;;;;;9.95;46.72;100785.80;106688;1304;22489;-57
2024/03/01 13:19:30;;;;;;;;;;;;;;;9.93;46.94;100788.20;106893;1310;23386;-57
2024/03/01 13:22:04;;;;;;;;;;;;;;;9.87;47.13;100784.31;106861;1304;22904;-64
2024/03/01 13:24:33;;;;;;;;;;;;;;;9.82;47.67;100790.89;106787;1309;23239;-56
2024/03/01 13:27:06;;;;;;;;;;;;;;;9.79;47.64;100792.23;106761;1307;22486;-63
2024/03/01 13:29:35;;;;;;;;;;;;;;;9.74;47.84;100796.55;106694;1306;22505;-56
2024/03/01 13:33:02;;;;;;;;;;;;;;;9.64;48.06;100793.98;106693;1307;22507;-62
2024/03/01 13:35:47;;;;;;;;;;;;;;;9.54;48.31;100793.35;106726;1307;22576;-63
2024/03/01 13:40:02;;;;;;;;;;;;;;;9.44;49.02;100785.73;106411;1312;22542;-63
2024/03/01 13:42:35;;;;;;;;;;;;;;;9.40;49.24;100785.67;106433;1312;22499;-56
2024/03/01 13:45:11;;;;;;;;;;;;;;;9.37;49.02;100785.99;106344;1316;23048;-63
2024/03/01 13:47:39;;;;;;;;;;;;;;;9.34;48.94;100779.69;106449;1313;22792;-62
2024/03/01 13:50:08;;;;;;;;;;;;;;;9.30;48.99;100777.72;106416;1316;22525;-63
2024/03/01 13:52:39;;;;;;;;;;;;;;;9.25;48.95;100780.61;106412;1313;22523;-63
2024/03/01 13:55:10;;;;;;;;;;;;;;;9.19;49.14;100779.32;106471;1312;22528;-55
2024/03/01 13:57:42;;;;;;;;;;;;;;;9.13;49.45;100774.37;106530;1318;23006;-55
2024/03/01 14:00:14;;;;;;;;;;;;;;;9.07;49.59;100770.11;106544;1313;23499;-62
2024/03/01 14:02:43;;;;;;;;;;;;;;;8.99;49.77;100766.00;106477;1312;22518;-62
2024/03/01 14:05:14;;;;;;;;;;;;;;;8.92;50.25;100767.82;106536;1312;22640;-62
2024/03/01 14:07:46;;;;;;;;;;;;;;;8.87;50.53;100764.77;106515;1318;22582;-55
2024/03/01 14:10:15;;;;;;;;;;;;;;;8.81;50.76;100764.70;106542;1309;22545;-63
2024/03/01 14:12:44;;;;;;;;;;;;;;;8.77;51.06;100769.70;106608;1312;22503;-62
2024/03/01 14:15:19;;;;;;;;;;;;;;;8.73;51.29;100768.92;106838;1306;23284;-61
2024/03/01 14:17:47;;;;;;;;;;;;;;;8.69;51.39;100768.18;106871;1308;22505;-55
2024/03/01 14:20:16;;;;;;;;;;;;;;;8.67;51.57;100769.36;107181;1296;22496;-62
2024/03/01 14:22:46;;;;;;;;;;;;;;;8.64;51.74;100761.31;107058;1312;23245;-62
2024/03/01 14:25:17;;;;;;;;;;;;;;;8.61;52.04;100760.05;106984;1313;23312;-56
2024/03/01 14:28:03;;;;;;;;;;;;;;;8.56;52.25;100756.31;107087;1311;22482;-55
2024/03/01 14:30:31;;;;;;;;;;;;;;;8.49;52.27;100747.52;107211;1307;22531;-55
2024/03/01 14:33:12;;;;;;;;;;;;;;;8.44;52.48;100750.91;107144;1311;22728;-55
2024/03/01 14:36:16;;;;;;;;;;;;;;;8.39;52.53;100753.98;107065;1305;23154;-55
2024/03/01 14:38:49;;;;;;;;;;;;;;;8.37;52.92;100754.46;107103;1306;22535;-61
2024/03/01 14:41:18;;;;;;;;;;;;;;;8.33;53.04;100756.61;107134;1310;22710;-62
2024/03/01 14:43:53;;;;;;;;;;;;;;;8.30;53.25;100755.34;107223;1308;22495;-56
2024/03/01 14:46:36;;;;;;;;;;;;;;;8.25;53.09;100746.58;107228;1311;23210;-56
2024/03/01 14:49:10;;;;;;;;;;;;;;;8.18;53.48;100741.25;107160;1311;22670;-62
2024/03/01 14:51:44;;;;;;;;;;;;;;;8.11;53.63;100742.88;107164;1311;22490;-62
2024/03/01 14:54:18;;;;;;;;;;;;;;;8.05;53.82;100747.46;107052;1311;22473;-62
2024/03/01 14:56:47;;;;;;;;;;;;;;;7.99;53.63;100753.26;107172;1312;23160;-63
2024/03/01 14:59:16;;;;;;;;;;;;;;;7.93;54.22;100756.63;107233;1311;22546;-62
2024/03/01 15:01:47;;;;;;;;;;;;;;;7.89;53.75;100752.91;107224;1311;22496;-62
2024/03/01 15:04:15;;;;;;;;;;;;;;;7.86;54.10;100756.33;107131;1311;22490;-63
2024/03/01 15:06:53;;;;;;;;;;;;;;;7.81;54.13;100760.05;107168;1297;22465;-62
2024/03/01 15:09:26;;;;;;;;;;;;;;;7.73;54.29;100762.33;107229;1310;22526;-62
2024/03/01 15:12:06;;;;;;;;;;;;;;;7.66;54.45;100762.38;107257;1310;22451;-62
2024/03/01 15:14:35;;;;;;;;;;;;;;;7.61;54.86;100768.36;107166;1310;22467;-56
2024/03/01 15:17:11;;;;;;;;;;;;;;;7.56;55.13;100771.05;107291;1310;23367;-55
2024/03/01 15:19:39;;;;;;;;;;;;;;;7.51;55.33;100777.70;107249;1307;22505;-55
2024/03/01 15:22:18;;;;;;;;;;;;;;;7.42;54.96;100781.86;107212;1308;23189;-61
2024/03/01 15:24:46;;;;;;;;;;;;;;;7.33;55.40;100789.48;107294;1310;22535;-61
